Time;durP1;ratioP1;P1;durP2;ratioP2;P2;SDS_P1;SDS_P2;PMS_P1;PMS_P2;Temp;Humidity;BMP_temperature;BMP_pressure;BME280_temperature;BME280_humidity;BME280_pressure;Samples;Min_cycle;Max_cycle;Signal;HPM_P1;HPM_P2
2021/06/17 00:00:34;;;;;;;6.30;5.67;;;28.10;54.80;;;;;;4963634;28;20191;-82
2021/06/17 00:03:00;;;;;;;4.93;4.53;;;28.10;54.40;;;;;;4963015;28;20577;-80
2021/06/17 00:05:29;;;;;;;5.13;4.73;;;28.20;54.30;;;;;;4962514;28;20469;-78
2021/06/17 00:07:56;;;;;;;6.77;5.57;;;28.20;54.30;;;;;;4966653;28;20503;-81
2021/06/17 00:10:25;;;;;;;5.60;5.10;;;28.20;53.90;;;;;;4964229;28;21129;-79
2021/06/17 00:12:51;;;;;;;5.20;4.80;;;28.00;54.90;;;;;;4963340;28;20444;-80
2021/06/17 00:15:18;;;;;;;5.20;4.80;;;28.00;54.70;;;;;;4962532;28;20469;-80
2021/06/17 00:17:46;;;;;;;5.03;4.63;;;28.00;54.30;;;;;;4963332;28;20476;-78
2021/06/17 00:20:15;;;;;;;5.50;5.10;;;27.90;54.40;;;;;;4965660;28;20434;-78
2021/06/17 00:22:42;;;;;;;6.10;5.50;;;27.80;54.20;;;;;;4963462;28;22088;-80
2021/06/17 00:25:08;;;;;;;5.27;4.87;;;27.50;55.20;;;;;;4946578;28;20462;-80
2021/06/17 00:27:34;;;;;;;5.17;4.67;;;27.40;55.50;;;;;;4965642;28;20453;-79
2021/06/17 00:29:59;;;;;;;4.90;4.60;;;27.40;55.60;;;;;;4965128;28;20869;-80
2021/06/17 00:32:25;;;;;;;5.33;4.83;;;27.40;55.10;;;;;;4962056;28;20759;-80
2021/06/17 00:34:51;;;;;;;4.80;4.40;;;27.60;55.40;;;;;;4963918;28;20202;-82
2021/06/17 00:37:16;;;;;;;5.30;4.90;;;27.70;54.60;;;;;;4963384;28;20237;-78
2021/06/17 00:39:42;;;;;;;5.10;4.70;;;27.70;54.40;;;;;;4962535;28;20230;-83
2021/06/17 00:42:08;;;;;;;4.83;4.43;;;27.60;54.70;;;;;;4963200;28;20268;-79
2021/06/17 00:44:35;;;;;;;5.00;4.53;;;27.70;54.40;;;;;;4964118;28;20229;-78
2021/06/17 00:47:00;;;;;;;5.00;4.60;;;27.70;54.00;;;;;;4963974;28;20194;-78
2021/06/17 00:49:27;;;;;;;5.70;4.67;;;27.70;54.10;;;;;;4962410;28;20516;-80
2021/06/17 00:51:53;;;;;;;5.20;4.70;;;27.60;54.30;;;;;;4963243;28;20485;-80
2021/06/17 00:54:32;;;;;;;6.40;4.87;;;27.60;54.50;;;;;;4965242;28;20453;-79
2021/06/17 00:57:09;;;;;;;5.83;5.33;;;27.60;54.20;;;;;;4963622;28;20480;-83
2021/06/17 00:59:36;;;;;;;5.00;4.60;;;27.50;54.10;;;;;;4964607;28;20524;-81
2021/06/17 01:02:02;;;;;;;7.33;5.27;;;27.60;54.00;;;;;;4962370;28;20449;-78
2021/06/17 01:04:28;;;;;;;5.40;5.00;;;27.60;53.80;;;;;;4960419;28;20493;-81
2021/06/17 01:06:55;;;;;;;5.13;4.63;;;27.60;53.80;;;;;;4963673;28;20446;-80
2021/06/17 01:09:47;;;;;;;4.97;4.67;;;27.60;54.20;;;;;;4962385;28;20425;-78
2021/06/17 01:12:50;;;;;;;5.70;5.30;;;27.50;54.10;;;;;;4962121;28;20452;-80
2021/06/17 01:15:21;;;;;;;5.43;5.00;;;27.50;53.90;;;;;;4962639;28;20461;-79
2021/06/17 01:18:02;;;;;;;5.00;4.60;;;27.50;53.80;;;;;;4964555;28;21092;-79
2021/06/17 01:20:54;;;;;;;5.53;5.00;;;27.40;54.00;;;;;;4962660;28;20438;-77
2021/06/17 01:23:22;;;;;;;4.87;4.40;;;27.50;53.60;;;;;;4962185;28;20461;-81
2021/06/17 01:26:16;;;;;;;4.83;4.53;;;27.40;54.20;;;;;;4962554;28;20422;-81
2021/06/17 01:28:44;;;;;;;4.63;4.30;;;27.40;54.10;;;;;;4961867;28;20449;-82
2021/06/17 01:31:16;;;;;;;5.43;5.03;;;27.40;53.90;;;;;;4960565;28;20440;-77
2021/06/17 01:33:48;;;;;;;5.30;4.90;;;27.40;53.90;;;;;;4965911;28;20442;-77
2021/06/17 01:36:21;;;;;;;5.43;5.03;;;27.40;53.40;;;;;;4967659;28;20557;-82
2021/06/17 01:38:52;;;;;;;5.87;5.13;;;27.40;53.40;;;;;;4967382;28;20529;-81
2021/06/17 01:41:21;;;;;;;5.17;4.77;;;27.30;54.30;;;;;;4967369;28;20438;-79
2021/06/17 01:43:48;;;;;;;4.87;4.57;;;27.20;54.30;;;;;;4963336;28;20462;-82
2021/06/17 01:46:14;;;;;;;4.77;4.47;;;27.30;54.00;;;;;;4966491;28;20568;-79
2021/06/17 01:48:42;;;;;;;4.80;4.50;;;27.30;53.90;;;;;;4967137;28;20449;-80
2021/06/17 01:51:08;;;;;;;5.80;5.07;;;27.30;53.80;;;;;;4964347;28;20469;-78
2021/06/17 01:53:37;;;;;;;5.40;4.57;;;27.40;53.30;;;;;;4967348;28;20466;-79
2021/06/17 01:56:04;;;;;;;6.17;5.23;;;27.30;53.30;;;;;;4965548;28;20833;-80
2021/06/17 01:58:31;;;;;;;5.50;5.00;;;27.30;53.20;;;;;;4961341;28;20450;-81
2021/06/17 02:00:59;;;;;;;5.63;5.00;;;27.10;53.10;;;;;;4969588;28;20465;-80
2021/06/17 02:03:25;;;;;;;5.17;4.77;;;27.00;53.90;;;;;;4961916;28;20438;-79
2021/06/17 02:05:52;;;;;;;4.90;4.50;;;27.00;53.80;;;;;;4965161;28;20453;-79
2021/06/17 02:08:19;;;;;;;5.43;5.03;;;27.10;53.60;;;;;;4966573;28;20523;-79
2021/06/17 02:10:46;;;;;;;4.80;4.40;;;27.00;54.10;;;;;;4963961;28;20531;-80
2021/06/17 02:13:15;;;;;;;5.03;4.53;;;26.90;54.20;;;;;;4962463;28;20438;-78
2021/06/17 02:15:46;;;;;;;4.57;4.27;;;26.90;54.70;;;;;;4958472;28;20546;-80
2021/06/17 02:18:14;;;;;;;5.40;4.90;;;27.00;53.70;;;;;;4957340;28;21028;-80
2021/06/17 02:20:40;;;;;;;4.90;4.40;;;26.90;54.40;;;;;;4958514;28;20451;-78
2021/06/17 02:23:12;;;;;;;4.93;4.53;;;26.90;54.50;;;;;;4960031;28;20449;-81
2021/06/17 02:25:38;;;;;;;5.80;5.30;;;26.90;53.60;;;;;;4959698;28;20525;-79
2021/06/17 02:28:08;;;;;;;4.93;4.53;;;27.00;53.40;;;;;;4965569;28;20450;-78
2021/06/17 02:30:35;;;;;;;4.87;4.37;;;27.10;53.30;;;;;;4962453;28;20826;-79
2021/06/17 02:33:05;;;;;;;4.73;4.33;;;26.90;54.00;;;;;;4964273;28;21857;-79
2021/06/17 02:35:31;;;;;;;4.73;4.33;;;26.60;55.30;;;;;;4967387;28;20493;-78
2021/06/17 02:38:01;;;;;;;6.83;4.93;;;26.60;56.00;;;;;;4964533;28;20480;-79
2021/06/17 02:40:32;;;;;;;5.50;5.07;;;26.60;55.50;;;;;;4964402;28;20450;-79
2021/06/17 02:43:00;;;;;;;5.60;5.13;;;26.70;55.30;;;;;;4966140;28;20434;-81
2021/06/17 02:45:29;;;;;;;5.30;4.87;;;26.70;55.20;;;;;;4962319;28;20474;-79
2021/06/17 02:47:55;;;;;;;5.10;4.70;;;26.50;55.40;;;;;;4965956;28;21227;-79
2021/06/17 02:50:22;;;;;;;5.70;5.20;;;26.30;56.10;;;;;;4966111;28;20465;-79
2021/06/17 02:52:48;;;;;;;6.77;6.07;;;26.20;57.00;;;;;;4965422;28;20584;-77
2021/06/17 02:55:14;;;;;;;7.73;5.10;;;26.30;56.70;;;;;;4967860;28;20528;-77
2021/06/17 02:58:17;;;;;;;6.03;5.53;;;26.20;57.40;;;;;;4969057;28;20480;-78
2021/06/17 03:00:52;;;;;;;5.97;5.47;;;25.90;58.30;;;;;;4963942;28;20960;-80
2021/06/17 03:03:27;;;;;;;6.30;5.70;;;26.10;58.10;;;;;;4979278;28;20446;-77
2021/06/17 03:06:02;;;;;;;5.00;4.60;;;26.00;58.50;;;;;;4968144;28;20907;-80
2021/06/17 03:08:33;;;;;;;6.03;5.60;;;26.20;58.00;;;;;;4962974;28;20444;-79
2021/06/17 03:11:02;;;;;;;5.73;5.20;;;26.20;58.00;;;;;;4964052;28;20553;-81
2021/06/17 03:13:31;;;;;;;5.63;5.23;;;26.30;57.60;;;;;;4966822;28;20435;-79
2021/06/17 03:15:57;;;;;;;5.73;5.33;;;26.10;57.70;;;;;;4964631;28;20438;-80
2021/06/17 03:18:23;;;;;;;5.60;5.20;;;26.20;57.70;;;;;;4965315;28;20470;-80
2021/06/17 03:20:50;;;;;;;5.33;4.90;;;26.20;57.40;;;;;;4965758;28;20185;-77
2021/06/17 03:23:18;;;;;;;5.47;4.97;;;25.90;57.60;;;;;;4964435;28;21225;-78
2021/06/17 03:25:49;;;;;;;7.63;5.20;;;25.50;58.30;;;;;;4961520;28;20522;-80
2021/06/17 03:28:16;;;;;;;4.80;4.43;;;25.70;58.30;;;;;;4966065;28;20442;-83
2021/06/17 03:30:49;;;;;;;5.33;4.90;;;25.90;58.10;;;;;;4965187;28;20542;-79
2021/06/17 03:33:20;;;;;;;5.40;4.93;;;25.70;58.40;;;;;;4968331;28;21146;-81
2021/06/17 03:35:47;;;;;;;5.97;5.40;;;25.70;58.40;;;;;;4967389;28;20437;-79
2021/06/17 03:38:14;;;;;;;6.40;5.70;;;25.80;58.00;;;;;;4968410;28;20534;-79
2021/06/17 03:40:43;;;;;;;5.20;4.80;;;25.70;58.40;;;;;;4968242;28;20489;-80
2021/06/17 03:43:09;;;;;;;7.67;6.97;;;25.90;58.30;;;;;;4963673;28;20438;-80
2021/06/17 03:45:40;;;;;;;10.50;6.17;;;25.90;58.30;;;;;;4969074;28;20462;-79
2021/06/17 03:48:07;;;;;;;6.70;5.57;;;25.80;58.50;;;;;;4964519;28;20481;-80
2021/06/17 03:50:34;;;;;;;5.70;5.13;;;25.60;58.50;;;;;;4965400;28;20660;-79
2021/06/17 03:53:01;;;;;;;6.57;6.00;;;25.40;59.60;;;;;;4968501;28;20513;-81
2021/06/17 03:55:28;;;;;;;7.10;5.90;;;25.00;61.00;;;;;;4965775;28;20758;-82
2021/06/17 03:57:58;;;;;;;11.07;5.93;;;25.10;61.80;;;;;;4968902;28;20469;-78
2021/06/17 04:00:26;;;;;;;6.40;5.80;;;25.40;61.30;;;;;;4962656;28;20445;-80
2021/06/17 04:02:55;;;;;;;6.73;6.00;;;25.30;62.60;;;;;;4963825;28;20541;-81
2021/06/17 04:05:21;;;;;;;5.80;5.30;;;24.90;63.40;;;;;;4965968;28;20458;-77
2021/06/17 04:07:50;;;;;;;7.03;6.33;;;24.90;64.90;;;;;;4967835;28;20438;-78
2021/06/17 04:10:17;;;;;;;7.27;6.57;;;24.60;66.50;;;;;;4967192;28;20290;-78
2021/06/17 04:12:44;;;;;;;7.93;7.23;;;24.40;67.70;;;;;;4971882;28;20874;-81
2021/06/17 04:15:11;;;;;;;12.33;8.10;;;24.30;69.90;;;;;;4976177;28;20473;-79
2021/06/17 04:17:40;;;;;;;9.73;8.73;;;24.20;70.90;;;;;;4984128;28;20560;-79
2021/06/17 04:20:10;;;;;;;8.93;7.97;;;23.90;72.40;;;;;;4976145;28;20454;-76
2021/06/17 04:22:40;;;;;;;10.30;9.30;;;23.70;75.40;;;;;;4980624;28;20439;-76
2021/06/17 04:25:08;;;;;;;10.63;9.63;;;23.50;77.00;;;;;;4972250;28;20462;-79
2021/06/17 04:27:35;;;;;;;12.50;11.20;;;23.40;78.80;;;;;;4968831;28;20510;-80
2021/06/17 04:30:02;;;;;;;9.90;8.90;;;23.30;80.00;;;;;;4964621;28;20491;-76
2021/06/17 04:32:28;;;;;;;9.20;8.40;;;23.20;81.10;;;;;;4967282;28;21014;-79
2021/06/17 04:34:57;;;;;;;9.27;8.30;;;23.40;81.60;;;;;;4965917;28;20485;-79
2021/06/17 04:37:27;;;;;;;8.97;8.17;;;23.60;80.80;;;;;;4968602;28;21017;-81
2021/06/17 04:39:58;;;;;;;8.30;7.60;;;23.60;81.60;;;;;;4968653;28;20437;-81
2021/06/17 04:42:26;;;;;;;8.77;7.87;;;23.70;81.20;;;;;;4967370;28;21190;-80
2021/06/17 04:44:53;;;;;;;8.60;7.80;;;23.60;80.40;;;;;;4962253;28;20511;-79
2021/06/17 04:47:19;;;;;;;8.33;7.20;;;23.90;80.60;;;;;;4964473;28;20450;-81
2021/06/17 04:49:47;;;;;;;8.77;7.53;;;23.70;79.90;;;;;;4964170;28;20458;-80
2021/06/17 04:52:15;;;;;;;9.20;8.30;;;23.60;81.40;;;;;;4963141;28;20449;-78
2021/06/17 04:54:41;;;;;;;12.53;8.40;;;23.90;80.30;;;;;;4968788;28;20449;-79
2021/06/17 04:57:07;;;;;;;7.73;7.07;;;24.00;79.30;;;;;;4965245;28;20478;-77
2021/06/17 04:59:32;;;;;;;9.00;7.77;;;24.00;80.00;;;;;;4961109;28;20454;-76
2021/06/17 05:01:58;;;;;;;8.30;6.90;;;24.20;78.50;;;;;;4967512;28;20274;-80
2021/06/17 05:04:24;;;;;;;12.70;7.90;;;24.20;79.10;;;;;;4960988;28;20600;-80
2021/06/17 05:06:59;;;;;;;9.67;7.17;;;24.40;79.40;;;;;;4962749;28;20545;-78
2021/06/17 05:12:09;;;;;;;10.80;7.63;;;24.60;79.00;;;;;;4964741;28;20464;-79
2021/06/17 05:14:36;;;;;;;7.50;7.00;;;24.90;77.40;;;;;;4968136;28;20462;-79
2021/06/17 05:17:02;;;;;;;7.70;6.97;;;25.20;75.10;;;;;;4968291;28;20473;-79
2021/06/17 05:19:28;;;;;;;7.53;6.80;;;25.40;74.00;;;;;;4966668;28;20469;-79
2021/06/17 05:21:53;;;;;;;7.73;6.90;;;25.40;74.40;;;;;;4965571;28;20434;-80
2021/06/17 05:24:19;;;;;;;8.60;6.90;;;25.30;75.10;;;;;;4967875;28;20252;-78
2021/06/17 05:26:45;;;;;;;11.00;7.53;;;25.20;74.00;;;;;;4963177;28;20207;-82
2021/06/17 05:29:10;;;;;;;8.60;7.33;;;25.20;73.90;;;;;;4967524;28;20438;-80
2021/06/17 05:31:36;;;;;;;8.93;7.17;;;25.10;74.80;;;;;;4966864;28;20197;-77
2021/06/17 05:34:02;;;;;;;7.40;6.60;;;25.10;75.00;;;;;;4965719;28;20206;-77
2021/06/17 05:36:28;;;;;;;7.23;6.53;;;24.90;75.50;;;;;;4970267;28;20346;-79
2021/06/17 05:38:53;;;;;;;6.90;6.30;;;25.00;75.80;;;;;;4966692;28;20960;-79
2021/06/17 05:41:19;;;;;;;8.00;7.23;;;24.90;75.80;;;;;;4965405;28;20190;-78
2021/06/17 05:43:45;;;;;;;8.17;7.10;;;25.00;76.00;;;;;;4964086;28;20206;-78
2021/06/17 05:46:10;;;;;;;7.60;7.00;;;25.10;74.90;;;;;;4946898;28;20329;-79
2021/06/17 05:48:36;;;;;;;6.97;6.37;;;25.20;74.10;;;;;;4969496;28;20183;-80
2021/06/17 05:51:03;;;;;;;7.50;6.80;;;25.50;72.30;;;;;;4978002;28;20178;-80
2021/06/17 05:53:29;;;;;;;7.90;7.10;;;25.30;72.90;;;;;;4964533;28;20453;-81
2021/06/17 05:55:55;;;;;;;11.80;7.30;;;25.60;72.70;;;;;;4966154;28;20442;-79
2021/06/17 05:58:21;;;;;;;7.57;6.87;;;25.70;72.10;;;;;;4967514;28;20294;-81
2021/06/17 06:00:46;;;;;;;7.93;7.23;;;25.90;70.90;;;;;;4967082;28;20438;-78
2021/06/17 06:03:12;;;;;;;8.13;7.23;;;25.80;70.50;;;;;;4964672;28;20190;-83
2021/06/17 06:05:38;;;;;;;18.80;16.90;;;25.70;70.70;;;;;;4967019;28;20195;-81
2021/06/17 06:08:11;;;;;;;9.30;7.87;;;25.80;71.10;;;;;;4969560;28;20218;-79
2021/06/17 06:10:37;;;;;;;10.87;9.87;;;25.90;71.00;;;;;;4970027;28;20205;-82
2021/06/17 06:13:03;;;;;;;8.50;7.60;;;26.10;69.90;;;;;;4963058;28;20905;-80
2021/06/17 06:15:33;;;;;;;6.87;6.27;;;26.20;69.30;;;;;;4963116;28;20454;-81
2021/06/17 06:18:10;;;;;;;7.10;6.40;;;26.10;68.30;;;;;;4953116;28;20869;-84
2021/06/17 06:20:37;;;;;;;7.53;6.83;;;25.90;70.40;;;;;;4965458;28;21021;-81
2021/06/17 06:23:03;;;;;;;9.87;8.93;;;25.90;70.80;;;;;;4969600;28;20464;-80
2021/06/17 06:25:29;;;;;;;7.50;6.80;;;25.90;70.70;;;;;;4964632;28;20450;-82
2021/06/17 06:27:55;;;;;;;9.57;8.53;;;26.00;69.00;;;;;;4965273;28;20862;-77
2021/06/17 06:30:21;;;;;;;8.40;7.60;;;26.10;69.00;;;;;;4959544;28;20195;-79
2021/06/17 06:32:47;;;;;;;7.90;7.30;;;26.10;68.90;;;;;;4964617;28;21151;-78
2021/06/17 06:35:13;;;;;;;8.30;7.50;;;26.00;67.50;;;;;;4961821;28;20223;-81
2021/06/17 06:37:39;;;;;;;10.93;7.90;;;26.00;68.30;;;;;;4964156;28;20819;-79
2021/06/17 06:40:06;;;;;;;7.93;7.20;;;26.00;69.30;;;;;;4959805;28;20426;-79
2021/06/17 06:42:32;;;;;;;7.57;6.97;;;26.10;69.40;;;;;;4962693;28;20799;-81
2021/06/17 06:44:58;;;;;;;8.27;7.47;;;26.10;69.50;;;;;;4961607;28;20466;-79
2021/06/17 06:47:23;;;;;;;15.33;7.10;;;26.30;69.10;;;;;;4955633;28;20464;-78
2021/06/17 06:49:49;;;;;;;7.70;7.00;;;26.20;68.80;;;;;;4963667;28;20210;-77
2021/06/17 06:52:15;;;;;;;7.67;6.87;;;26.40;68.40;;;;;;4959381;28;20257;-77
2021/06/17 06:54:41;;;;;;;14.27;6.60;;;26.30;69.10;;;;;;4959273;28;20698;-82
2021/06/17 06:57:07;;;;;;;8.30;6.70;;;26.50;68.90;;;;;;4958883;28;20519;-81
2021/06/17 06:59:32;;;;;;;7.80;7.07;;;26.40;68.90;;;;;;4960572;28;20242;-82
2021/06/17 07:01:58;;;;;;;7.50;6.87;;;26.50;68.80;;;;;;4962460;28;20757;-79
2021/06/17 07:04:25;;;;;;;7.60;7.00;;;26.50;68.80;;;;;;4959100;28;20215;-81
2021/06/17 07:07:09;;;;;;;8.63;7.43;;;26.50;69.80;;;;;;4959921;28;20223;-82
2021/06/17 07:09:35;;;;;;;12.33;7.30;;;26.50;71.10;;;;;;4956526;28;20790;-78
2021/06/17 07:12:02;;;;;;;9.63;8.77;;;26.50;71.00;;;;;;4959311;28;20450;-78
2021/06/17 07:14:29;;;;;;;9.00;8.10;;;26.50;72.30;;;;;;4962041;28;20443;-78
2021/06/17 07:16:55;;;;;;;8.83;7.20;;;26.40;71.10;;;;;;4959635;28;20482;-80
2021/06/17 07:19:21;;;;;;;7.70;7.10;;;26.50;71.40;;;;;;4959108;28;20830;-79
2021/06/17 07:21:47;;;;;;;9.43;7.30;;;26.50;71.60;;;;;;4957034;28;20430;-78
2021/06/17 07:24:12;;;;;;;11.33;7.97;;;26.50;72.60;;;;;;4957970;28;20210;-80
2021/06/17 07:26:38;;;;;;;8.50;7.83;;;26.40;71.70;;;;;;4958737;28;20182;-80
2021/06/17 07:29:05;;;;;;;9.13;7.40;;;26.60;73.30;;;;;;4959781;28;20191;-81
2021/06/17 07:31:31;;;;;;;7.30;6.63;;;26.70;72.70;;;;;;4962302;28;20449;-78
2021/06/17 07:33:57;;;;;;;10.60;7.80;;;26.70;72.50;;;;;;4965643;28;20466;-79
2021/06/17 07:36:22;;;;;;;7.10;6.50;;;26.80;72.80;;;;;;4964089;28;20194;-84
2021/06/17 07:38:48;;;;;;;10.93;7.63;;;26.90;71.60;;;;;;4960685;28;20433;-79
2021/06/17 07:41:14;;;;;;;8.27;7.53;;;26.90;71.30;;;;;;4956264;28;20265;-78
2021/06/17 07:43:40;;;;;;;6.67;6.17;;;26.90;70.90;;;;;;4961085;28;20214;-78
2021/06/17 07:46:06;;;;;;;9.70;7.10;;;27.00;70.00;;;;;;4958499;28;20500;-79
2021/06/17 07:48:33;;;;;;;8.37;7.70;;;27.10;69.90;;;;;;4960544;28;20190;-76
2021/06/17 07:50:59;;;;;;;11.00;6.60;;;27.20;69.30;;;;;;4960620;28;20434;-78
2021/06/17 07:53:25;;;;;;;7.40;6.80;;;27.20;70.00;;;;;;4955014;28;20816;-77
2021/06/17 07:55:51;;;;;;;7.60;6.80;;;27.40;70.80;;;;;;4959100;28;20194;-82
2021/06/17 07:58:17;;;;;;;8.57;6.80;;;27.40;69.90;;;;;;4958330;28;20213;-80
2021/06/17 08:00:42;;;;;;;7.83;6.80;;;27.60;68.80;;;;;;4956071;28;20278;-79
2021/06/17 08:03:09;;;;;;;6.77;6.30;;;27.70;68.30;;;;;;4958648;28;20525;-80
2021/06/17 08:05:37;;;;;;;8.40;7.00;;;27.70;65.90;;;;;;4960889;28;20206;-81
2021/06/17 08:08:04;;;;;;;6.80;6.30;;;27.70;66.80;;;;;;4959043;28;20426;-79
2021/06/17 08:10:29;;;;;;;8.60;7.70;;;27.80;67.00;;;;;;4959954;28;20450;-81
2021/06/17 08:12:58;;;;;;;9.13;8.00;;;27.90;66.60;;;;;;4957826;28;20434;-80
2021/06/17 08:15:24;;;;;;;8.33;7.63;;;27.80;65.80;;;;;;4956695;28;20215;-79
2021/06/17 08:17:50;;;;;;;8.27;7.50;;;27.70;66.70;;;;;;4958603;28;20482;-80
2021/06/17 08:20:16;;;;;;;8.13;7.03;;;27.80;67.20;;;;;;4962572;28;20427;-77
2021/06/17 08:22:42;;;;;;;7.37;6.77;;;27.80;67.00;;;;;;4960718;28;20241;-77
2021/06/17 08:25:10;;;;;;;8.27;7.27;;;28.00;66.00;;;;;;4957242;28;20210;-79
2021/06/17 08:27:36;;;;;;;7.67;7.03;;;28.10;66.20;;;;;;4959000;28;20442;-77
2021/06/17 08:30:07;;;;;;;6.90;6.40;;;28.20;66.10;;;;;;4940340;28;20990;-79
2021/06/17 08:32:33;;;;;;;7.87;6.97;;;28.40;65.60;;;;;;4958586;28;20203;-80
2021/06/17 08:34:58;;;;;;;7.40;6.80;;;28.50;63.50;;;;;;4956751;28;20998;-78
2021/06/17 08:37:25;;;;;;;10.10;8.00;;;28.60;61.60;;;;;;4959608;28;20230;-77
2021/06/17 08:39:54;;;;;;;15.43;7.30;;;28.60;60.80;;;;;;4960941;28;20660;-76
2021/06/17 08:42:20;;;;;;;7.87;7.13;;;28.60;62.50;;;;;;4960597;28;20839;-79
2021/06/17 08:44:46;;;;;;;11.37;6.73;;;28.70;63.10;;;;;;4961291;28;20477;-77
2021/06/17 08:47:11;;;;;;;12.63;6.80;;;28.80;63.00;;;;;;4966020;28;20493;-80
2021/06/17 08:49:37;;;;;;;7.33;6.83;;;28.90;63.70;;;;;;4968549;28;20190;-82
2021/06/17 08:52:03;;;;;;;7.13;6.53;;;28.90;62.70;;;;;;4968128;28;20198;-83
2021/06/17 08:54:29;;;;;;;6.97;6.37;;;29.00;62.40;;;;;;4969547;28;20210;-86
2021/06/17 08:56:56;;;;;;;10.13;7.53;;;29.10;61.50;;;;;;4972848;28;20527;-79
2021/06/17 08:59:44;;;;;;;6.80;6.30;;;29.20;63.00;;;;;;4974244;28;20942;-85
2021/06/17 09:02:10;;;;;;;8.63;7.60;;;29.20;62.60;;;;;;4967584;28;20466;-80
2021/06/17 09:04:36;;;;;;;9.47;8.53;;;29.30;63.00;;;;;;4962717;28;20464;-77
2021/06/17 09:07:10;;;;;;;8.80;8.10;;;29.30;63.30;;;;;;4964571;28;20794;-77
2021/06/17 09:09:40;;;;;;;8.57;7.83;;;29.30;63.20;;;;;;4963210;28;20217;-76
2021/06/17 09:12:13;;;;;;;11.07;7.50;;;29.20;63.70;;;;;;4961623;28;21175;-76
2021/06/17 09:14:48;;;;;;;13.53;8.60;;;29.20;63.80;;;;;;4963339;28;21166;-79
2021/06/17 09:17:17;;;;;;;9.30;8.40;;;29.10;64.20;;;;;;4962588;28;20472;-80
2021/06/17 09:19:48;;;;;;;9.03;8.33;;;29.10;64.10;;;;;;4964208;28;20438;-80
2021/06/17 09:22:16;;;;;;;7.90;7.30;;;29.10;63.60;;;;;;4963753;28;20512;-79
2021/06/17 09:24:45;;;;;;;8.03;7.43;;;29.10;63.90;;;;;;4965208;28;20967;-79
2021/06/17 09:27:20;;;;;;;10.20;9.20;;;29.10;63.60;;;;;;4962267;28;20484;-78
2021/06/17 09:29:47;;;;;;;8.30;7.50;;;29.30;63.30;;;;;;4964632;28;20413;-77
2021/06/17 09:32:30;;;;;;;9.43;8.63;;;29.30;63.00;;;;;;4961905;28;20448;-79
2021/06/17 09:34:56;;;;;;;9.07;8.37;;;29.30;61.90;;;;;;4965385;28;20468;-83
2021/06/17 09:37:36;;;;;;;9.10;7.30;;;29.30;60.30;;;;;;4966718;28;20497;-80
2021/06/17 09:43:28;;;;;;;8.63;7.03;;;29.40;59.10;;;;;;4978919;23;20503;-64
2021/06/17 09:46:02;;;;;;;8.70;7.80;;;29.60;59.70;;;;;;4983279;28;20444;-66
2021/06/17 09:48:36;;;;;;;8.47;7.40;;;29.70;58.60;;;;;;4983180;28;20476;-63
2021/06/17 09:51:26;;;;;;;8.10;7.33;;;29.70;58.80;;;;;;4981007;28;20430;-65
2021/06/17 09:54:20;;;;;;;8.73;8.03;;;29.80;59.40;;;;;;4976577;28;20449;-66
2021/06/17 09:56:55;;;;;;;7.60;6.90;;;29.80;59.40;;;;;;4969874;28;20468;-61
2021/06/17 09:59:42;;;;;;;7.50;6.77;;;29.90;58.80;;;;;;4975084;28;20447;-65
2021/06/17 10:02:17;;;;;;;7.77;7.00;;;30.10;58.90;;;;;;4973381;28;20842;-61
2021/06/17 10:04:43;;;;;;;7.23;6.70;;;30.10;57.50;;;;;;4982556;28;20857;-64
2021/06/17 10:07:09;;;;;;;8.17;7.43;;;30.00;58.10;;;;;;4969033;28;20454;-64
2021/06/17 10:09:35;;;;;;;8.90;8.10;;;30.10;58.80;;;;;;4971399;28;20430;-65
2021/06/17 10:12:02;;;;;;;8.07;7.47;;;30.40;58.00;;;;;;4972274;28;20429;-63
2021/06/17 10:14:29;;;;;;;8.50;7.87;;;30.50;57.80;;;;;;4972048;28;20457;-63
2021/06/17 10:16:55;;;;;;;10.73;7.90;;;30.70;58.00;;;;;;4971546;28;20469;-65
2021/06/17 10:19:26;;;;;;;7.60;7.00;;;30.70;57.50;;;;;;4974488;28;20417;-64
2021/06/17 10:22:20;;;;;;;8.03;7.10;;;30.60;57.90;;;;;;4968909;28;20997;-65
2021/06/17 10:25:07;;;;;;;10.13;9.33;;;30.60;58.10;;;;;;4975290;28;20505;-64
2021/06/17 10:27:41;;;;;;;8.67;7.77;;;30.80;58.10;;;;;;4973853;28;21082;-62
2021/06/17 10:30:09;;;;;;;7.70;7.00;;;30.90;58.10;;;;;;4970270;28;20416;-64
2021/06/17 10:32:41;;;;;;;9.73;8.93;;;30.90;57.30;;;;;;4971695;28;20763;-68
2021/06/17 10:35:08;;;;;;;8.73;7.80;;;31.00;57.70;;;;;;4975897;28;20447;-65
2021/06/17 10:37:47;;;;;;;8.13;7.33;;;31.10;57.20;;;;;;4973104;28;21079;-64
2021/06/17 10:40:13;;;;;;;8.60;7.70;;;31.00;57.00;;;;;;4961567;28;21126;-63
2021/06/17 10:42:40;;;;;;;9.30;8.60;;;31.00;57.40;;;;;;4962579;28;20448;-66
2021/06/17 10:45:10;;;;;;;10.23;9.33;;;31.10;57.20;;;;;;4966592;28;20201;-65
2021/06/17 10:50:07;;;;;;;8.73;7.93;;;31.20;57.30;;;;;;4973143;28;20841;-63
2021/06/17 10:52:33;;;;;;;9.97;8.37;;;31.20;57.40;;;;;;4968448;28;20461;-63
2021/06/17 10:55:05;;;;;;;9.23;8.53;;;31.30;57.70;;;;;;4969538;28;20503;-64
2021/06/17 10:57:47;;;;;;;9.00;8.10;;;31.50;57.30;;;;;;4968976;28;20890;-64
2021/06/17 11:00:26;;;;;;;10.13;8.73;;;31.70;56.60;;;;;;4976340;28;20444;-64
2021/06/17 11:03:06;;;;;;;9.30;8.50;;;31.70;56.70;;;;;;4969912;28;20461;-63
2021/06/17 11:05:35;;;;;;;8.80;8.20;;;31.80;57.20;;;;;;4969046;28;20495;-64
2021/06/17 11:08:18;;;;;;;8.97;8.23;;;32.00;57.10;;;;;;4968003;28;20441;-64
2021/06/17 11:11:08;;;;;;;9.57;8.77;;;32.00;56.60;;;;;;4971558;28;20884;-65
2021/06/17 11:13:51;;;;;;;9.07;8.27;;;32.10;56.70;;;;;;4970662;28;20530;-64
2021/06/17 11:16:17;;;;;;;9.67;8.83;;;32.20;57.60;;;;;;4966070;28;20478;-65
2021/06/17 11:27:33;;;;;;;10.20;9.40;;;32.60;56.00;;;;;;4957223;28;20547;-65
2021/06/17 11:30:10;;;;;;;9.40;8.70;;;32.70;55.80;;;;;;4971404;28;20474;-64
2021/06/17 11:32:39;;;;;;;9.70;9.00;;;32.70;55.90;;;;;;4972299;28;20466;-63
2021/06/17 11:35:05;;;;;;;10.13;9.33;;;32.90;56.40;;;;;;4971654;28;20851;-64
2021/06/17 11:37:33;;;;;;;10.30;9.17;;;33.30;55.80;;;;;;4970630;28;20533;-65
2021/06/17 11:39:59;;;;;;;9.37;8.60;;;33.40;54.20;;;;;;4971446;28;20819;-64
2021/06/17 11:42:25;;;;;;;9.23;8.40;;;33.60;53.60;;;;;;4987968;28;20519;-64
2021/06/17 11:45:17;;;;;;;10.13;9.40;;;33.70;53.90;;;;;;4973399;28;20461;-64
2021/06/17 11:47:47;;;;;;;9.67;8.87;;;33.80;53.50;;;;;;4966460;28;20698;-64
2021/06/17 11:50:14;;;;;;;10.13;9.30;;;33.80;53.50;;;;;;4963381;28;20423;-63
2021/06/17 11:52:40;;;;;;;9.97;8.97;;;33.60;53.80;;;;;;4964373;28;20420;-65
2021/06/17 11:55:08;;;;;;;9.43;8.40;;;33.80;55.30;;;;;;4969977;28;20412;-63
2021/06/17 11:57:39;;;;;;;9.47;8.57;;;33.90;55.90;;;;;;4960222;28;20639;-64
2021/06/17 12:00:08;;;;;;;9.10;8.40;;;34.10;55.60;;;;;;4966254;28;20528;-64
2021/06/17 12:02:35;;;;;;;9.27;8.43;;;34.20;55.60;;;;;;4968259;28;20467;-63
2021/06/17 12:05:07;;;;;;;9.47;8.57;;;34.60;55.00;;;;;;4973005;28;20420;-64
2021/06/17 12:07:38;;;;;;;8.80;8.10;;;35.20;54.20;;;;;;4970452;28;20605;-63
2021/06/17 12:10:10;;;;;;;9.33;8.63;;;36.30;52.90;;;;;;4969581;28;20416;-65
2021/06/17 12:12:37;;;;;;;9.17;8.23;;;37.50;50.70;;;;;;4975830;28;20491;-65
2021/06/17 12:15:05;;;;;;;10.13;8.10;;;38.50;48.30;;;;;;4976628;28;20504;-64
2021/06/17 12:17:56;;;;;;;9.40;8.60;;;38.70;46.50;;;;;;4973713;28;20520;-64
2021/06/17 12:20:37;;;;;;;13.33;10.23;;;39.80;45.60;;;;;;4972127;28;20449;-63
2021/06/17 12:23:20;;;;;;;8.33;7.43;;;41.10;45.30;;;;;;4965428;28;20469;-64
2021/06/17 12:25:57;;;;;;;7.90;7.23;;;40.80;42.30;;;;;;4971030;28;20472;-64
2021/06/17 12:28:26;;;;;;;8.23;7.63;;;40.40;42.70;;;;;;4969999;28;20477;-64
2021/06/17 12:30:53;;;;;;;9.00;8.20;;;40.80;42.50;;;;;;4968481;28;20449;-65
2021/06/17 12:33:29;;;;;;;7.83;7.33;;;40.90;42.30;;;;;;4970024;28;20466;-64
2021/06/17 12:36:03;;;;;;;7.87;7.27;;;40.70;42.00;;;;;;4968561;28;20970;-64
2021/06/17 12:38:34;;;;;;;8.23;7.53;;;40.90;42.30;;;;;;4969504;28;20942;-64
2021/06/17 12:41:21;;;;;;;8.30;7.60;;;41.90;41.10;;;;;;4969841;28;20440;-64
2021/06/17 12:43:53;;;;;;;9.10;8.13;;;41.40;40.60;;;;;;4969754;28;20570;-63
2021/06/17 12:46:37;;;;;;;7.13;6.73;;;40.40;41.90;;;;;;4970399;28;20445;-63
2021/06/17 12:52:01;;;;;;;9.33;8.63;;;40.00;42.30;;;;;;4965137;28;20477;-65
2021/06/17 12:52:06;;;;;;;9.60;8.90;;;40.10;42.20;;;;;;4967607;28;20468;-65
2021/06/17 12:54:48;;;;;;;8.63;7.93;;;40.20;42.10;;;;;;4972206;28;20473;-66
2021/06/17 12:57:24;;;;;;;8.50;7.90;;;39.70;43.20;;;;;;4967129;28;20449;-65
2021/06/17 12:59:57;;;;;;;9.30;8.50;;;39.20;44.30;;;;;;5021707;23;21001;-63
2021/06/17 13:02:23;;;;;;;9.47;8.67;;;38.80;47.90;;;;;;4981952;28;20843;-64
2021/06/17 13:05:01;;;;;;;8.57;7.97;;;39.00;47.50;;;;;;4960760;28;20476;-63
2021/06/17 13:07:27;;;;;;;8.67;8.00;;;39.30;45.10;;;;;;4972919;28;21708;-63
2021/06/17 13:10:23;;;;;;;7.23;6.73;;;39.30;43.40;;;;;;4961489;28;20441;-64
2021/06/17 13:12:50;;;;;;;8.47;7.77;;;39.00;44.50;;;;;;4961152;28;20469;-64
2021/06/17 13:15:24;;;;;;;12.40;7.90;;;39.10;43.20;;;;;;4961285;28;20436;-63